sensor_id;sensor_type;location;lat;lon;timestamp;pressure;altitude;pressure_sealevel;temperature;humidity
25498;BME280;13406;53.380;7.226;2024-03-07T00:01:46;102452.41;;;2.77;100.00
25498;BME280;13406;53.380;7.226;2024-03-07T00:04:12;102649.03;;;4.08;100.00
25498;BME280;13406;53.380;7.226;2024-03-07T00:06:37;102464.66;;;3.03;100.00
25498;BME280;13406;53.380;7.226;2024-03-07T00:09:05;102513.59;;;3.23;100.00
25498;BME280;13406;53.380;7.226;2024-03-07T00:11:31;102665.59;;;4.12;100.00
25498;BME280;13406;53.380;7.226;2024-03-07T00:13:57;102422.75;;;2.59;100.00
25498;BME280;13406;53.380;7.226;2024-03-07T00:16:22;102266.84;;;1.79;100.00
25498;BME280;13406;53.380;7.226;2024-03-07T00:18:48;102636.06;;;4.03;100.00
25498;BME280;13406;53.380;7.226;2024-03-07T00:21:13;102215.22;;;1.35;100.00
25498;BME280;13406;53.380;7.226;2024-03-07T00:23:39;102500.94;;;2.77;100.00
25498;BME280;13406;53.380;7.226;2024-03-07T00:26:04;102729.72;;;4.18;100.00
25498;BME280;13406;53.380;7.226;2024-03-07T00:28:30;102662.88;;;3.88;100.00
25498;BME280;13406;53.380;7.226;2024-03-07T00:30:58;102611.78;;;3.60;100.00
25498;BME280;13406;53.380;7.226;2024-03-07T00:33:24;102559.25;;;3.52;100.00
25498;BME280;13406;53.380;7.226;2024-03-07T00:35:50;102370.03;;;2.04;100.00
25498;BME280;13406;53.380;7.226;2024-03-07T00:38:16;102351.94;;;1.98;100.00
25498;BME280;13406;53.380;7.226;2024-03-07T00:40:41;102683.75;;;4.05;100.00
25498;BME280;13406;53.380;7.226;2024-03-07T00:43:07;102554.34;;;3.09;100.00
25498;BME280;13406;53.380;7.226;2024-03-07T00:45:32;102495.88;;;2.74;100.00
25498;BME280;13406;53.380;7.226;2024-03-07T00:47:58;102573.00;;;3.33;100.00
25498;BME280;13406;53.380;7.226;2024-03-07T00:50:24;102542.50;;;2.77;100.00
25498;BME280;13406;53.380;7.226;2024-03-07T00:52:50;102515.78;;;2.54;100.00
25498;BME280;13406;53.380;7.226;2024-03-07T00:55:18;102293.69;;;1.22;100.00
25498;BME280;13406;53.380;7.226;2024-03-07T00:57:43;102458.56;;;2.52;100.00
25498;BME280;13406;53.380;7.226;2024-03-07T01:00:10;102492.28;;;2.62;100.00
25498;BME280;13406;53.380;7.226;2024-03-07T01:02:42;102814.19;;;4.26;100.00
25498;BME280;13406;53.380;7.226;2024-03-07T01:05:09;102443.09;;;1.94;100.00
25498;BME280;13406;53.380;7.226;2024-03-07T01:07:35;102562.75;;;2.90;100.00
25498;BME280;13406;53.380;7.226;2024-03-07T01:10:03;102503.06;;;2.34;100.00
25498;BME280;13406;53.380;7.226;2024-03-07T01:12:31;102536.56;;;2.47;100.00
25498;BME280;13406;53.380;7.226;2024-03-07T01:14:57;102333.19;;;1.10;100.00
25498;BME280;13406;53.380;7.226;2024-03-07T01:17:22;102455.84;;;1.75;100.00
25498;BME280;13406;53.380;7.226;2024-03-07T01:19:49;102695.66;;;3.24;100.00
25498;BME280;13406;53.380;7.226;2024-03-07T01:22:14;102796.06;;;3.94;100.00
25498;BME280;13406;53.380;7.226;2024-03-07T01:24:40;102383.22;;;1.26;100.00
25498;BME280;13406;53.380;7.226;2024-03-07T01:27:06;102494.22;;;1.95;100.00
25498;BME280;13406;53.380;7.226;2024-03-07T01:29:34;102510.75;;;1.71;100.00
25498;BME280;13406;53.380;7.226;2024-03-07T01:32:02;102519.19;;;1.64;100.00
25498;BME280;13406;53.380;7.226;2024-03-07T01:34:28;102584.47;;;1.90;100.00
25498;BME280;13406;53.380;7.226;2024-03-07T01:36:58;102701.53;;;2.49;100.00
25498;BME280;13406;53.380;7.226;2024-03-07T01:39:24;102410.66;;;0.70;100.00
25498;BME280;13406;53.380;7.226;2024-03-07T01:41:49;102563.91;;;1.54;100.00
25498;BME280;13406;53.380;7.226;2024-03-07T01:44:15;102381.22;;;0.61;100.00
25498;BME280;13406;53.380;7.226;2024-03-07T01:46:40;102796.25;;;3.00;100.00
25498;BME280;13406;53.380;7.226;2024-03-07T01:49:11;102527.22;;;1.21;100.00
25498;BME280;13406;53.380;7.226;2024-03-07T01:51:37;102905.34;;;3.48;100.00
25498;BME280;13406;53.380;7.226;2024-03-07T01:54:10;102576.84;;;1.44;100.00
25498;BME280;13406;53.380;7.226;2024-03-07T01:56:38;102339.97;;;0.17;100.00
25498;BME280;13406;53.380;7.226;2024-03-07T01:59:05;102735.88;;;2.51;100.00
25498;BME280;13406;53.380;7.226;2024-03-07T02:01:32;102442.44;;;0.54;100.00
25498;BME280;13406;53.380;7.226;2024-03-07T02:04:01;102546.66;;;1.20;100.00
25498;BME280;13406;53.380;7.226;2024-03-07T02:06:31;102635.00;;;2.14;100.00
25498;BME280;13406;53.380;7.226;2024-03-07T02:09:02;102518.22;;;1.38;100.00
25498;BME280;13406;53.380;7.226;2024-03-07T02:11:32;102606.59;;;1.62;100.00
25498;BME280;13406;53.380;7.226;2024-03-07T02:14:00;102492.13;;;1.04;100.00
25498;BME280;13406;53.380;7.226;2024-03-07T02:16:31;102689.59;;;2.30;100.00
25498;BME280;13406;53.380;7.226;2024-03-07T02:19:01;102864.97;;;3.30;100.00
25498;BME280;13406;53.380;7.226;2024-03-07T02:21:26;102569.47;;;1.49;100.00
25498;BME280;13406;53.380;7.226;2024-03-07T02:23:54;102897.03;;;3.27;100.00
25498;BME280;13406;53.380;7.226;2024-03-07T02:26:20;102278.72;;;-0.16;100.00
25498;BME280;13406;53.380;7.226;2024-03-07T02:28:45;102260.69;;;-0.53;100.00
25498;BME280;13406;53.380;7.226;2024-03-07T02:31:11;102560.16;;;1.29;100.00
25498;BME280;13406;53.380;7.226;2024-03-07T02:33:39;102559.88;;;1.34;100.00
25498;BME280;13406;53.380;7.226;2024-03-07T02:36:05;102887.66;;;3.22;100.00
25498;BME280;13406;53.380;7.226;2024-03-07T02:38:33;102481.06;;;0.98;100.00
25498;BME280;13406;53.380;7.226;2024-03-07T02:40:59;102228.59;;;-0.59;100.00
25498;BME280;13406;53.380;7.226;2024-03-07T02:43:25;102475.97;;;0.95;100.00
25498;BME280;13406;53.380;7.226;2024-03-07T02:45:53;102685.63;;;1.81;100.00
25498;BME280;13406;53.380;7.226;2024-03-07T02:48:24;102486.66;;;0.79;100.00
25498;BME280;13406;53.380;7.226;2024-03-07T02:50:52;102716.16;;;1.87;100.00
25498;BME280;13406;53.380;7.226;2024-03-07T02:53:17;102406.09;;;0.00;100.00
25498;BME280;13406;53.380;7.226;2024-03-07T02:55:42;102655.69;;;1.52;100.00
25498;BME280;13406;53.380;7.226;2024-03-07T02:58:13;102320.78;;;-0.29;100.00
25498;BME280;13406;53.380;7.226;2024-03-07T03:00:41;102501.94;;;0.59;100.00
25498;BME280;13406;53.380;7.226;2024-03-07T03:03:09;102574.91;;;1.05;100.00
25498;BME280;13406;53.380;7.226;2024-03-07T03:05:36;102612.94;;;1.02;100.00
25498;BME280;13406;53.380;7.226;2024-03-07T03:08:02;102726.94;;;1.55;100.00
25498;BME280;13406;53.380;7.226;2024-03-07T03:10:36;102612.75;;;1.20;100.00
25498;BME280;13406;53.380;7.226;2024-03-07T03:13:02;102552.03;;;0.61;100.00
25498;BME280;13406;53.380;7.226;2024-03-07T03:15:32;102591.88;;;1.01;100.00
25498;BME280;13406;53.380;7.226;2024-03-07T03:18:00;102405.91;;;-0.11;100.00
25498;BME280;13406;53.380;7.226;2024-03-07T03:20:26;102643.31;;;1.52;100.00
25498;BME280;13406;53.380;7.226;2024-03-07T03:22:59;102677.63;;;1.68;100.00
25498;BME280;13406;53.380;7.226;2024-03-07T03:25:26;102415.69;;;-0.13;100.00
25498;BME280;13406;53.380;7.226;2024-03-07T03:27:52;102354.16;;;-0.14;100.00
25498;BME280;13406;53.380;7.226;2024-03-07T03:30:20;102480.59;;;0.34;100.00
25498;BME280;13406;53.380;7.226;2024-03-07T03:32:49;102779.66;;;2.15;100.00
25498;BME280;13406;53.380;7.226;2024-03-07T03:35:17;102350.84;;;-0.62;100.00
25498;BME280;13406;53.380;7.226;2024-03-07T03:37:48;102508.19;;;0.73;100.00
25498;BME280;13406;53.380;7.226;2024-03-07T03:40:19;102549.94;;;0.66;100.00
25498;BME280;13406;53.380;7.226;2024-03-07T03:42:46;102344.03;;;-0.36;100.00
25498;BME280;13406;53.380;7.226;2024-03-07T03:45:12;102381.09;;;-0.23;100.00
25498;BME280;13406;53.380;7.226;2024-03-07T03:47:43;102730.59;;;1.81;100.00
25498;BME280;13406;53.380;7.226;2024-03-07T03:50:10;102385.06;;;-0.46;100.00
25498;BME280;13406;53.380;7.226;2024-03-07T03:52:37;102596.03;;;1.05;100.00
25498;BME280;13406;53.380;7.226;2024-03-07T03:55:05;102360.09;;;-0.55;100.00
25498;BME280;13406;53.380;7.226;2024-03-07T03:57:33;102724.19;;;1.42;100.00
25498;BME280;13406;53.380;7.226;2024-03-07T04:00:04;102597.34;;;0.98;100.00
25498;BME280;13406;53.380;7.226;2024-03-07T04:02:42;102310.34;;;-0.61;100.00
25498;BME280;13406;53.380;7.226;2024-03-07T04:05:15;102884.78;;;2.56;100.00
25498;BME280;13406;53.380;7.226;2024-03-07T04:07:50;102587.84;;;0.51;100.00
25498;BME280;13406;53.380;7.226;2024-03-07T04:10:16;102333.31;;;-0.93;100.00
25498;BME280;13406;53.380;7.226;2024-03-07T04:12:45;102305.28;;;-0.94;100.00
25498;BME280;13406;53.380;7.226;2024-03-07T04:15:15;102320.72;;;-0.88;100.00
25498;BME280;13406;53.380;7.226;2024-03-07T04:17:48;102563.91;;;0.24;100.00
25498;BME280;13406;53.380;7.226;2024-03-07T04:20:16;102412.22;;;-0.76;100.00
25498;BME280;13406;53.380;7.226;2024-03-07T04:22:44;102544.22;;;0.29;100.00
25498;BME280;13406;53.380;7.226;2024-03-07T04:25:12;102634.75;;;0.61;100.00
25498;BME280;13406;53.380;7.226;2024-03-07T04:27:40;102615.75;;;0.55;100.00
25498;BME280;13406;53.380;7.226;2024-03-07T04:30:09;102955.34;;;2.43;100.00
25498;BME280;13406;53.380;7.226;2024-03-07T04:32:39;102709.22;;;1.27;100.00
25498;BME280;13406;53.380;7.226;2024-03-07T04:35:07;102625.34;;;0.41;100.00
25498;BME280;13406;53.380;7.226;2024-03-07T04:37:41;102495.69;;;-0.29;100.00
25498;BME280;13406;53.380;7.226;2024-03-07T04:40:09;102448.56;;;-0.35;100.00
25498;BME280;13406;53.380;7.226;2024-03-07T04:42:50;102500.72;;;-0.40;100.00
25498;BME280;13406;53.380;7.226;2024-03-07T04:45:17;102296.91;;;-1.48;100.00
25498;BME280;13406;53.380;7.226;2024-03-07T04:48:40;102925.94;;;2.62;100.00
25498;BME280;13406;53.380;7.226;2024-03-07T04:51:06;102928.13;;;2.55;100.00
25498;BME280;13406;53.380;7.226;2024-03-07T04:53:31;102833.56;;;2.00;100.00
25498;BME280;13406;53.380;7.226;2024-03-07T04:55:57;102846.41;;;1.92;100.00
25498;BME280;13406;53.380;7.226;2024-03-07T04:58:22;102875.97;;;1.98;100.00
25498;BME280;13406;53.380;7.226;2024-03-07T05:00:48;102957.53;;;2.51;100.00
25498;BME280;13406;53.380;7.226;2024-03-07T05:03:13;102890.44;;;2.07;100.00
25498;BME280;13406;53.380;7.226;2024-03-07T05:05:39;102965.88;;;2.44;100.00
25498;BME280;13406;53.380;7.226;2024-03-07T05:08:06;102886.66;;;1.83;100.00
25498;BME280;13406;53.380;7.226;2024-03-07T05:10:31;103002.78;;;2.76;100.00
25498;BME280;13406;53.380;7.226;2024-03-07T05:12:57;102989.97;;;2.54;100.00
25498;BME280;13406;53.380;7.226;2024-03-07T05:15:25;102949.72;;;2.04;100.00
25498;BME280;13406;53.380;7.226;2024-03-07T05:17:54;103003.91;;;2.43;100.00
25498;BME280;13406;53.380;7.226;2024-03-07T05:20:21;102966.78;;;2.15;100.00
25498;BME280;13406;53.380;7.226;2024-03-07T05:22:49;103018.25;;;2.39;100.00
25498;BME280;13406;53.380;7.226;2024-03-07T05:25:18;102980.63;;;2.04;100.00
25498;BME280;13406;53.380;7.226;2024-03-07T05:27:47;103057.53;;;2.47;100.00
25498;BME280;13406;53.380;7.226;2024-03-07T05:30:16;103045.28;;;2.30;100.00
25498;BME280;13406;53.380;7.226;2024-03-07T05:32:42;103050.81;;;2.41;100.00
25498;BME280;13406;53.380;7.226;2024-03-07T05:35:08;103093.13;;;2.57;100.00
25498;BME280;13406;53.380;7.226;2024-03-07T05:37:34;102972.34;;;1.80;100.00
25498;BME280;13406;53.380;7.226;2024-03-07T05:40:00;103102.28;;;2.52;100.00
25498;BME280;13406;53.380;7.226;2024-03-07T05:42:27;103053.19;;;2.16;100.00
25498;BME280;13406;53.380;7.226;2024-03-07T05:44:55;103113.53;;;2.41;100.00
25498;BME280;13406;53.380;7.226;2024-03-07T05:47:20;103147.63;;;2.47;100.00
25498;BME280;13406;53.380;7.226;2024-03-07T05:49:47;103082.38;;;2.00;100.00
25498;BME280;13406;53.380;7.226;2024-03-07T05:52:12;103131.25;;;2.24;100.00
25498;BME280;13406;53.380;7.226;2024-03-07T05:54:38;103139.19;;;2.40;100.00
25498;BME280;13406;53.380;7.226;2024-03-07T05:57:03;103019.06;;;1.49;100.00
25498;BME280;13406;53.380;7.226;2024-03-07T05:59:32;103117.16;;;2.08;100.00
25498;BME280;13406;53.380;7.226;2024-03-07T06:01:57;103048.06;;;1.67;100.00
25498;BME280;13406;53.380;7.226;2024-03-07T06:04:23;103015.75;;;1.46;100.00
25498;BME280;13406;53.380;7.226;2024-03-07T06:06:49;103170.63;;;2.31;100.00
25498;BME280;13406;53.380;7.226;2024-03-07T06:09:15;103068.38;;;1.66;100.00
25498;BME280;13406;53.380;7.226;2024-03-07T06:11:46;103091.31;;;1.81;100.00
25498;BME280;13406;53.380;7.226;2024-03-07T06:14:12;103161.75;;;2.16;100.00
25498;BME280;13406;53.380;7.226;2024-03-07T06:16:39;103146.06;;;1.97;100.00
25498;BME280;13406;53.380;7.226;2024-03-07T06:19:06;103200.28;;;2.37;100.00
25498;BME280;13406;53.380;7.226;2024-03-07T06:21:33;103204.78;;;2.35;100.00
25498;BME280;13406;53.380;7.226;2024-03-07T06:24:02;103211.28;;;2.30;100.00
25498;BME280;13406;53.380;7.226;2024-03-07T06:26:31;103216.84;;;2.25;100.00
25498;BME280;13406;53.380;7.226;2024-03-07T06:29:14;103139.13;;;1.63;100.00
25498;BME280;13406;53.380;7.226;2024-03-07T06:31:41;103238.44;;;2.33;100.00
25498;BME280;13406;53.380;7.226;2024-03-07T06:34:07;103194.88;;;2.07;100.00
25498;BME280;13406;53.380;7.226;2024-03-07T06:36:34;103112.75;;;1.61;100.00
25498;BME280;13406;53.380;7.226;2024-03-07T06:38:59;103130.69;;;1.72;100.00
25498;BME280;13406;53.380;7.226;2024-03-07T06:41:25;103172.25;;;2.01;100.00
25498;BME280;13406;53.380;7.226;2024-03-07T06:43:50;103236.38;;;2.54;100.00
25498;BME280;13406;53.380;7.226;2024-03-07T06:46:16;103138.19;;;1.95;100.00
25498;BME280;13406;53.380;7.226;2024-03-07T06:48:42;103165.66;;;2.24;100.00
25498;BME280;13406;53.380;7.226;2024-03-07T06:51:08;103109.94;;;1.96;100.00
25498;BME280;13406;53.380;7.226;2024-03-07T06:53:33;103207.34;;;2.53;100.00
25498;BME280;13406;53.380;7.226;2024-03-07T06:55:59;103084.50;;;1.77;100.00
25498;BME280;13406;53.380;7.226;2024-03-07T06:58:26;103114.97;;;2.00;100.00
25498;BME280;13406;53.380;7.226;2024-03-07T07:00:52;103165.56;;;2.42;100.00
25498;BME280;13406;53.380;7.226;2024-03-07T07:03:20;103175.97;;;2.45;100.00
25498;BME280;13406;53.380;7.226;2024-03-07T07:05:45;103099.53;;;1.93;100.00
25498;BME280;13406;53.380;7.226;2024-03-07T07:08:11;103101.06;;;1.97;100.00
25498;BME280;13406;53.380;7.226;2024-03-07T07:10:39;103192.78;;;2.60;100.00
25498;BME280;13406;53.380;7.226;2024-03-07T07:13:06;103208.91;;;2.71;100.00
25498;BME280;13406;53.380;7.226;2024-03-07T07:15:31;103214.56;;;2.65;100.00
25498;BME280;13406;53.380;7.226;2024-03-07T07:17:58;103196.44;;;2.57;100.00
25498;BME280;13406;53.380;7.226;2024-03-07T07:20:24;103172.72;;;2.56;100.00
25498;BME280;13406;53.380;7.226;2024-03-07T07:22:52;103203.59;;;2.71;100.00
25498;BME280;13406;53.380;7.226;2024-03-07T07:25:18;103226.00;;;2.81;100.00
25498;BME280;13406;53.380;7.226;2024-03-07T07:30:12;103224.63;;;2.74;100.00
25498;BME280;13406;53.380;7.226;2024-03-07T07:32:39;103213.44;;;2.69;100.00
25498;BME280;13406;53.380;7.226;2024-03-07T07:35:05;103227.94;;;2.78;100.00
25498;BME280;13406;53.380;7.226;2024-03-07T07:37:37;103158.09;;;2.48;100.00
25498;BME280;13406;53.380;7.226;2024-03-07T07:40:03;103207.41;;;2.67;100.00
25498;BME280;13406;53.380;7.226;2024-03-07T07:42:29;103201.00;;;2.85;100.00
25498;BME280;13406;53.380;7.226;2024-03-07T07:44:54;103171.56;;;2.76;100.00
25498;BME280;13406;53.380;7.226;2024-03-07T07:47:20;103069.94;;;2.16;100.00
25498;BME280;13406;53.380;7.226;2024-03-07T07:49:45;103217.16;;;3.11;100.00
25498;BME280;13406;53.380;7.226;2024-03-07T07:52:11;103197.13;;;2.91;100.00
25498;BME280;13406;53.380;7.226;2024-03-07T07:54:42;103130.19;;;2.73;100.00
25498;BME280;13406;53.380;7.226;2024-03-07T07:57:08;103163.66;;;3.04;100.00
25498;BME280;13406;53.380;7.226;2024-03-07T07:59:33;103079.50;;;2.49;100.00
25498;BME280;13406;53.380;7.226;2024-03-07T08:01:58;103025.53;;;2.36;100.00
25498;BME280;13406;53.380;7.226;2024-03-07T08:04:24;103029.06;;;2.51;100.00
25498;BME280;13406;53.380;7.226;2024-03-07T08:06:49;103064.69;;;2.75;100.00
25498;BME280;13406;53.380;7.226;2024-03-07T08:09:15;103030.59;;;2.55;100.00
25498;BME280;13406;53.380;7.226;2024-03-07T08:11:42;103065.16;;;2.82;100.00
25498;BME280;13406;53.380;7.226;2024-03-07T08:14:07;103059.75;;;2.83;100.00
25498;BME280;13406;53.380;7.226;2024-03-07T08:16:33;103025.47;;;2.66;100.00
25498;BME280;13406;53.380;7.226;2024-03-07T08:18:59;103102.94;;;3.14;100.00
25498;BME280;13406;53.380;7.226;2024-03-07T08:21:24;102923.47;;;2.30;100.00
25498;BME280;13406;53.380;7.226;2024-03-07T08:23:49;103058.31;;;3.21;100.00
25498;BME280;13406;53.380;7.226;2024-03-07T08:26:15;102963.31;;;2.71;100.00
25498;BME280;13406;53.380;7.226;2024-03-07T08:28:43;102921.41;;;2.49;100.00
25498;BME280;13406;53.380;7.226;2024-03-07T08:31:08;103007.56;;;3.12;100.00
25498;BME280;13406;53.380;7.226;2024-03-07T08:33:34;103001.38;;;3.26;100.00
25498;BME280;13406;53.380;7.226;2024-03-07T08:36:00;102992.50;;;3.27;100.00
25498;BME280;13406;53.380;7.226;2024-03-07T08:38:26;102970.88;;;3.33;100.00
25498;BME280;13406;53.380;7.226;2024-03-07T08:40:52;102994.31;;;3.54;100.00
25498;BME280;13406;53.380;7.226;2024-03-07T08:43:17;102985.94;;;3.60;100.00
25498;BME280;13406;53.380;7.226;2024-03-07T08:45:42;102949.00;;;3.57;100.00
25498;BME280;13406;53.380;7.226;2024-03-07T08:48:08;102964.66;;;3.74;100.00
25498;BME280;13406;53.380;7.226;2024-03-07T08:50:38;102926.09;;;3.56;100.00
25498;BME280;13406;53.380;7.226;2024-03-07T08:53:04;102826.03;;;2.91;100.00
25498;BME280;13406;53.380;7.226;2024-03-07T08:55:32;102877.97;;;3.48;100.00
25498;BME280;13406;53.380;7.226;2024-03-07T08:57:58;102918.28;;;3.93;100.00
25498;BME280;13406;53.380;7.226;2024-03-07T09:00:23;102921.41;;;3.99;100.00
25498;BME280;13406;53.380;7.226;2024-03-07T09:02:52;102895.56;;;3.89;100.00
25498;BME280;13406;53.380;7.226;2024-03-07T09:05:19;102879.09;;;3.96;100.00
25498;BME280;13406;53.380;7.226;2024-03-07T09:07:46;102819.19;;;3.54;100.00
25498;BME280;13406;53.380;7.226;2024-03-07T09:10:12;102788.19;;;3.54;100.00
25498;BME280;13406;53.380;7.226;2024-03-07T09:12:40;102845.31;;;3.98;100.00
25498;BME280;13406;53.380;7.226;2024-03-07T09:15:06;102756.78;;;3.48;100.00
25498;BME280;13406;53.380;7.226;2024-03-07T09:17:32;102806.56;;;3.83;100.00
25498;BME280;13406;53.380;7.226;2024-03-07T09:19:57;102797.41;;;3.87;100.00
25498;BME280;13406;53.380;7.226;2024-03-07T09:22:23;102816.63;;;4.16;100.00
25498;BME280;13406;53.380;7.226;2024-03-07T09:24:48;102760.69;;;3.81;100.00
25498;BME280;13406;53.380;7.226;2024-03-07T09:27:14;102802.75;;;4.37;100.00
25498;BME280;13406;53.380;7.226;2024-03-07T09:29:41;102735.91;;;4.06;100.00
25498;BME280;13406;53.380;7.226;2024-03-07T09:32:06;102742.03;;;4.19;100.00
25498;BME280;13406;53.380;7.226;2024-03-07T09:34:34;102640.75;;;3.63;100.00
25498;BME280;13406;53.380;7.226;2024-03-07T09:37:01;102648.81;;;3.74;100.00
25498;BME280;13406;53.380;7.226;2024-03-07T09:39:27;102588.91;;;3.33;100.00
25498;BME280;13406;53.380;7.226;2024-03-07T09:41:53;102716.59;;;4.04;100.00
25498;BME280;13406;53.380;7.226;2024-03-07T09:44:21;102656.59;;;3.65;100.00
25498;BME280;13406;53.380;7.226;2024-03-07T09:46:50;102615.31;;;3.35;100.00
25498;BME280;13406;53.380;7.226;2024-03-07T09:49:17;102676.66;;;3.93;100.00
25498;BME280;13406;53.380;7.226;2024-03-07T09:51:44;102666.63;;;3.85;100.00
25498;BME280;13406;53.380;7.226;2024-03-07T09:54:10;102694.94;;;3.97;100.00
25498;BME280;13406;53.380;7.226;2024-03-07T09:56:36;102706.59;;;4.07;100.00
25498;BME280;13406;53.380;7.226;2024-03-07T09:59:03;102708.78;;;4.14;100.00
25498;BME280;13406;53.380;7.226;2024-03-07T10:01:32;102718.91;;;4.08;100.00
25498;BME280;13406;53.380;7.226;2024-03-07T10:04:00;102661.81;;;3.90;100.00
25498;BME280;13406;53.380;7.226;2024-03-07T10:06:40;102736.56;;;4.34;100.00
25498;BME280;13406;53.380;7.226;2024-03-07T10:09:07;102689.13;;;4.16;100.00
25498;BME280;13406;53.380;7.226;2024-03-07T10:11:33;102709.22;;;4.20;100.00
25498;BME280;13406;53.380;7.226;2024-03-07T10:13:59;102697.47;;;3.99;100.00
25498;BME280;13406;53.380;7.226;2024-03-07T10:16:24;102685.00;;;4.12;100.00
25498;BME280;13406;53.380;7.226;2024-03-07T10:18:50;102704.06;;;4.30;100.00
25498;BME280;13406;53.380;7.226;2024-03-07T10:21:19;102647.44;;;3.69;100.00
25498;BME280;13406;53.380;7.226;2024-03-07T10:23:45;102697.09;;;4.16;100.00
25498;BME280;13406;53.380;7.226;2024-03-07T10:26:10;102696.69;;;4.22;100.00
25498;BME280;13406;53.380;7.226;2024-03-07T10:28:37;102627.13;;;3.80;100.00
25498;BME280;13406;53.380;7.226;2024-03-07T10:31:04;102700.78;;;4.26;100.00
25498;BME280;13406;53.380;7.226;2024-03-07T10:33:34;102596.94;;;3.57;100.00
25498;BME280;13406;53.380;7.226;2024-03-07T10:36:00;102707.34;;;4.34;100.00
25498;BME280;13406;53.380;7.226;2024-03-07T10:38:27;102708.00;;;4.37;100.00
25498;BME280;13406;53.380;7.226;2024-03-07T10:40:54;102560.84;;;3.55;100.00
25498;BME280;13406;53.380;7.226;2024-03-07T10:43:21;102607.19;;;3.99;100.00
25498;BME280;13406;53.380;7.226;2024-03-07T10:45:48;102662.69;;;4.39;100.00
25498;BME280;13406;53.380;7.226;2024-03-07T10:48:17;102555.28;;;3.95;100.00
25498;BME280;13406;53.380;7.226;2024-03-07T10:56:05;102603.06;;;4.43;100.00
25498;BME280;13406;53.380;7.226;2024-03-07T10:58:51;102602.59;;;4.49;100.00
25498;BME280;13406;53.380;7.226;2024-03-07T11:01:22;102608.78;;;4.61;100.00
25498;BME280;13406;53.380;7.226;2024-03-07T11:03:50;102594.66;;;4.71;100.00
25498;BME280;13406;53.380;7.226;2024-03-07T11:06:18;102555.66;;;4.61;100.00
25498;BME280;13406;53.380;7.226;2024-03-07T11:08:44;102545.63;;;4.75;100.00
25498;BME280;13406;53.380;7.226;2024-03-07T11:11:11;102531.38;;;4.88;100.00
25498;BME280;13406;53.380;7.226;2024-03-07T11:13:38;102529.06;;;5.39;100.00
25498;BME280;13406;53.380;7.226;2024-03-07T11:16:05;102503.72;;;5.68;100.00
25498;BME280;13406;53.380;7.226;2024-03-07T11:18:31;102444.47;;;5.54;100.00
25498;BME280;13406;53.380;7.226;2024-03-07T11:20:56;102456.00;;;6.29;100.00
25498;BME280;13406;53.380;7.226;2024-03-07T11:23:32;102280.78;;;5.91;100.00
25498;BME280;13406;53.380;7.226;2024-03-07T11:26:08;102347.56;;;6.79;100.00
25498;BME280;13406;53.380;7.226;2024-03-07T11:28:38;102300.56;;;6.78;100.00
25498;BME280;13406;53.380;7.226;2024-03-07T11:33:36;102224.59;;;6.44;100.00
25498;BME280;13406;53.380;7.226;2024-03-07T11:36:08;102254.97;;;7.01;100.00
25498;BME280;13406;53.380;7.226;2024-03-07T11:38:44;102287.19;;;7.66;100.00
25498;BME280;13406;53.380;7.226;2024-03-07T11:41:09;102244.50;;;7.56;100.00
25498;BME280;13406;53.380;7.226;2024-03-07T11:43:39;102235.09;;;7.42;100.00
25498;BME280;13406;53.380;7.226;2024-03-07T11:46:05;102235.34;;;7.59;100.00
25498;BME280;13406;53.380;7.226;2024-03-07T11:48:39;102222.25;;;7.65;100.00
25498;BME280;13406;53.380;7.226;2024-03-07T11:51:06;102224.59;;;7.78;100.00
25498;BME280;13406;53.380;7.226;2024-03-07T11:53:38;102175.34;;;7.53;100.00
25498;BME280;13406;53.380;7.226;2024-03-07T11:56:05;102158.81;;;7.77;100.00
25498;BME280;13406;53.380;7.226;2024-03-07T11:58:37;102158.41;;;8.00;100.00
25498;BME280;13406;53.380;7.226;2024-03-07T12:01:06;102086.75;;;7.67;100.00
25498;BME280;13406;53.380;7.226;2024-03-07T12:03:36;102026.84;;;7.24;100.00
25498;BME280;13406;53.380;7.226;2024-03-07T12:06:02;102173.94;;;8.14;100.00
25498;BME280;13406;53.380;7.226;2024-03-07T12:08:28;102126.13;;;8.11;100.00
25498;BME280;13406;53.380;7.226;2024-03-07T12:10:55;102145.59;;;8.49;100.00
25498;BME280;13406;53.380;7.226;2024-03-07T12:13:22;102150.69;;;8.78;100.00
25498;BME280;13406;53.380;7.226;2024-03-07T12:15:48;102029.00;;;8.20;100.00
25498;BME280;13406;53.380;7.226;2024-03-07T12:18:17;102104.13;;;8.45;100.00
25498;BME280;13406;53.380;7.226;2024-03-07T12:20:46;102106.19;;;7.87;100.00
25498;BME280;13406;53.380;7.226;2024-03-07T12:23:34;102099.91;;;7.79;100.00
25498;BME280;13406;53.380;7.226;2024-03-07T12:26:01;102140.63;;;8.54;100.00
25498;BME280;13406;53.380;7.226;2024-03-07T12:28:27;102112.91;;;8.81;100.00
25498;BME280;13406;53.380;7.226;2024-03-07T12:30:56;102038.84;;;8.81;100.00
25498;BME280;13406;53.380;7.226;2024-03-07T12:33:22;102089.28;;;8.94;100.00
25498;BME280;13406;53.380;7.226;2024-03-07T12:35:51;102095.06;;;8.64;100.00
25498;BME280;13406;53.380;7.226;2024-03-07T12:38:18;102107.28;;;8.66;100.00
25498;BME280;13406;53.380;7.226;2024-03-07T12:40:45;102074.59;;;8.54;100.00
25498;BME280;13406;53.380;7.226;2024-03-07T12:43:17;102085.13;;;9.00;100.00
25498;BME280;13406;53.380;7.226;2024-03-07T12:45:51;102042.03;;;8.85;100.00
25498;BME280;13406;53.380;7.226;2024-03-07T12:48:18;102048.06;;;9.56;100.00
25498;BME280;13406;53.380;7.226;2024-03-07T12:50:48;102051.31;;;9.92;100.00
25498;BME280;13406;53.380;7.226;2024-03-07T12:53:23;102075.09;;;9.02;100.00
25498;BME280;13406;53.380;7.226;2024-03-07T12:55:51;102071.56;;;9.01;100.00
25498;BME280;13406;53.380;7.226;2024-03-07T12:58:17;102063.00;;;9.66;100.00
25498;BME280;13406;53.380;7.226;2024-03-07T13:00:44;102055.84;;;9.33;100.00
25498;BME280;13406;53.380;7.226;2024-03-07T13:03:10;102002.69;;;9.03;100.00